createdAt,value
2019-01-13T00:00:11.644Z,12.40
2019-01-13T00:01:08.428Z,13.00
2019-01-13T00:02:07.126Z,13.20
2019-01-13T00:03:07.174Z,13.50
2019-01-13T00:04:07.718Z,13.70
2019-01-13T00:05:06.715Z,13.00
2019-01-13T00:06:06.960Z,13.00
2019-01-13T00:07:07.334Z,13.70
2019-01-13T00:08:07.399Z,13.90
2019-01-13T00:09:06.708Z,13.80
2019-01-13T00:10:07.315Z,13.90
2019-01-13T00:11:06.734Z,13.70
2019-01-13T00:12:07.349Z,13.20
2019-01-13T00:13:07.476Z,13.60
2019-01-13T00:14:06.628Z,14.30
2019-01-13T00:15:07.047Z,13.20
2019-01-13T00:16:07.421Z,13.40
2019-01-13T00:17:06.631Z,13.50
2019-01-13T00:18:06.745Z,13.10
2019-01-13T00:19:06.572Z,13.40
2019-01-13T00:20:07.331Z,13.60
2019-01-13T00:21:07.327Z,12.50
2019-01-13T00:23:08.822Z,13.40
2019-01-13T00:24:06.553Z,13.80
2019-01-13T00:25:06.553Z,13.70
2019-01-13T00:26:06.576Z,13.20
2019-01-13T00:27:06.462Z,13.10
2019-01-13T00:28:07.340Z,13.60
2019-01-13T00:29:08.127Z,14.10
2019-01-13T00:30:06.491Z,13.60
2019-01-13T00:31:07.921Z,14.00
2019-01-13T00:32:06.501Z,13.80
2019-01-13T00:34:07.679Z,13.40
2019-01-13T00:35:06.389Z,13.30
2019-01-13T00:36:06.778Z,13.70
2019-01-13T00:37:07.345Z,14.20
2019-01-13T00:38:06.391Z,13.40
2019-01-13T00:39:11.208Z,13.70
2019-01-13T00:40:08.342Z,14.90
2019-01-13T00:41:06.321Z,13.90
2019-01-13T00:42:06.412Z,13.70
2019-01-13T00:43:06.824Z,13.00
2019-01-13T00:44:06.853Z,13.40
2019-01-13T00:45:06.718Z,14.00
2019-01-13T00:46:06.900Z,12.80
2019-01-13T00:47:06.612Z,13.80
2019-01-13T00:48:06.247Z,13.00
2019-01-13T00:49:06.258Z,13.20
2019-01-13T00:50:07.039Z,13.60
2019-01-13T00:51:06.441Z,13.00
2019-01-13T00:52:06.353Z,13.30
2019-01-13T00:53:07.053Z,14.30
2019-01-13T00:54:06.475Z,13.90
2019-01-13T00:55:08.395Z,13.90
2019-01-13T00:56:06.161Z,13.00
2019-01-13T00:57:06.210Z,14.20
2019-01-13T00:58:06.662Z,14.90
2019-01-13T00:59:06.693Z,13.30
2019-01-13T01:01:07.405Z,14.20
2019-01-13T01:02:06.222Z,14.10
2019-01-13T01:03:06.152Z,13.90
2019-01-13T01:04:06.155Z,14.00
2019-01-13T01:05:07.008Z,14.30
2019-01-13T01:06:06.134Z,15.50
2019-01-13T01:07:06.842Z,15.00
2019-01-13T01:08:06.111Z,14.40
2019-01-13T01:09:06.045Z,13.40
2019-01-13T01:10:06.832Z,13.60
2019-01-13T01:11:07.105Z,14.40
2019-01-13T01:12:06.007Z,14.30
2019-01-13T01:13:06.333Z,12.60
2019-01-13T01:14:06.233Z,14.10
2019-01-13T01:15:06.070Z,14.80
2019-01-13T01:16:06.318Z,14.70
2019-01-13T01:17:05.955Z,14.70
2019-01-13T01:18:06.007Z,14.50
2019-01-13T01:19:06.262Z,13.70
2019-01-13T01:20:05.931Z,13.80
2019-01-13T01:21:06.144Z,12.90
2019-01-13T01:22:05.965Z,13.70
2019-01-13T01:23:05.871Z,13.90
2019-01-13T01:24:06.018Z,13.90
2019-01-13T01:25:05.858Z,14.80
2019-01-13T01:26:06.834Z,14.00
2019-01-13T01:27:05.894Z,14.20
2019-01-13T01:28:05.853Z,15.30
2019-01-13T01:29:06.337Z,15.00
2019-01-13T01:30:06.143Z,14.10
2019-01-13T01:31:05.794Z,13.20
2019-01-13T01:32:06.003Z,13.50
2019-01-13T01:33:06.211Z,13.90
2019-01-13T01:34:06.532Z,13.80
2019-01-13T01:35:05.777Z,13.50
2019-01-13T01:36:05.813Z,13.00
2019-01-13T01:37:05.863Z,13.10
2019-01-13T01:38:05.923Z,14.00
2019-01-13T01:39:05.775Z,13.70
2019-01-13T01:40:06.337Z,13.20
2019-01-13T01:41:05.771Z,12.50
2019-01-13T01:42:05.680Z,12.80
2019-01-13T01:43:06.021Z,14.00
2019-01-13T01:44:05.877Z,13.20
2019-01-13T01:45:05.644Z,12.90
2019-01-13T01:46:05.688Z,14.30
2019-01-13T01:47:05.608Z,13.40
2019-01-13T01:48:06.011Z,13.30
2019-01-13T01:49:05.734Z,13.20
2019-01-13T01:50:05.628Z,13.50
2019-01-13T01:51:05.633Z,13.60
2019-01-13T01:52:05.562Z,13.20
2019-01-13T01:54:07.163Z,13.20
2019-01-13T01:55:05.722Z,12.80
2019-01-13T01:56:06.551Z,13.10
2019-01-13T01:57:06.351Z,13.10
2019-01-13T01:58:05.561Z,13.50
2019-01-13T01:59:06.847Z,12.90
2019-01-13T02:00:06.365Z,12.70
2019-01-13T02:01:05.464Z,12.70
2019-01-13T02:02:06.624Z,12.60
2019-01-13T02:03:06.835Z,12.90
2019-01-13T02:04:05.624Z,12.50
2019-01-13T02:05:05.804Z,13.40
2019-01-13T02:06:05.706Z,12.80
2019-01-13T02:07:05.743Z,13.20
2019-01-13T02:08:05.464Z,13.30
2019-01-13T02:09:05.784Z,12.90
2019-01-13T02:10:05.757Z,12.70
2019-01-13T02:11:05.389Z,12.60
2019-01-13T02:12:05.383Z,12.90
2019-01-13T02:13:05.757Z,13.10
2019-01-13T02:14:05.846Z,13.40
2019-01-13T02:15:05.660Z,12.60
2019-01-13T02:16:05.387Z,13.20
2019-01-13T02:17:05.306Z,12.40
2019-01-13T02:18:05.932Z,12.90
2019-01-13T02:19:05.849Z,12.60
2019-01-13T02:20:05.357Z,12.20
2019-01-13T02:21:05.411Z,12.80
2019-01-13T02:22:05.296Z,12.90
2019-01-13T02:23:05.295Z,13.00
2019-01-13T02:24:05.288Z,13.10
2019-01-13T02:25:05.228Z,12.40
2019-01-13T02:26:05.857Z,13.10
2019-01-13T02:27:05.857Z,13.30
2019-01-13T02:28:05.388Z,13.10
2019-01-13T02:29:05.619Z,13.10
2019-01-13T02:30:05.240Z,13.40
2019-01-13T02:31:05.454Z,12.70
2019-01-13T02:32:05.190Z,13.30
2019-01-13T02:33:05.150Z,13.30
2019-01-13T02:34:05.189Z,12.90
2019-01-13T02:35:06.057Z,13.10
2019-01-13T02:36:05.989Z,13.10
2019-01-13T02:37:05.083Z,12.70
2019-01-13T02:38:05.981Z,12.50
2019-01-13T02:39:05.984Z,12.30
2019-01-13T02:40:05.166Z,13.00
2019-01-13T02:42:06.850Z,12.60
2019-01-13T02:43:05.169Z,12.60
2019-01-13T02:44:05.855Z,12.10
2019-01-13T02:45:06.400Z,12.10
2019-01-13T02:46:06.024Z,12.10
2019-01-13T02:47:05.329Z,11.10
2019-01-13T02:48:04.974Z,11.50
2019-01-13T02:49:06.126Z,12.30
2019-01-13T02:50:05.858Z,10.60
2019-01-13T02:51:06.031Z,10.70
2019-01-13T02:52:05.223Z,10.60
2019-01-13T02:53:05.871Z,11.10
2019-01-13T02:54:07.397Z,10.50
2019-01-13T02:55:05.509Z,10.80
2019-01-13T02:56:05.035Z,10.30
2019-01-13T02:57:05.163Z,10.30
2019-01-13T02:58:06.397Z,9.90
2019-01-13T02:59:04.841Z,10.40
2019-01-13T03:00:05.023Z,10.70
2019-01-13T03:01:05.487Z,10.20
2019-01-13T03:02:04.839Z,10.60
2019-01-13T03:03:05.029Z,10.10
2019-01-13T03:04:05.427Z,9.80
2019-01-13T03:05:04.793Z,10.00
2019-01-13T03:06:05.137Z,9.60
2019-01-13T03:07:05.137Z,9.70
2019-01-13T03:08:05.897Z,9.40
2019-01-13T03:09:05.799Z,9.20
2019-01-13T03:10:04.861Z,10.20
2019-01-13T03:11:05.237Z,9.40
2019-01-13T03:12:06.541Z,9.90
2019-01-13T03:13:05.182Z,8.90
2019-01-13T03:14:05.388Z,9.50
2019-01-13T03:15:05.447Z,8.80
2019-01-13T03:16:04.753Z,9.00
2019-01-13T03:18:05.705Z,8.70
2019-01-13T03:19:05.621Z,8.60
2019-01-13T03:20:05.758Z,8.70
2019-01-13T03:21:04.619Z,8.70
2019-01-13T03:22:05.820Z,8.30
2019-01-13T03:23:06.005Z,8.70
2019-01-13T03:24:04.654Z,8.40
2019-01-13T03:25:04.818Z,8.20
2019-01-13T03:26:04.658Z,8.90
2019-01-13T03:28:15.882Z,8.20
2019-01-13T03:29:15.776Z,8.10
2019-01-13T03:30:15.832Z,8.70
2019-01-13T03:31:15.752Z,8.20
2019-01-13T03:32:15.667Z,8.00
2019-01-13T03:33:15.662Z,8.40
2019-01-13T03:34:15.658Z,7.80
2019-01-13T03:35:15.635Z,8.30
2019-01-13T03:36:15.644Z,8.60
2019-01-13T03:37:15.635Z,8.10
2019-01-13T03:38:15.613Z,7.80
2019-01-13T03:39:15.601Z,7.80
2019-01-13T03:40:15.588Z,8.10
2019-01-13T03:41:15.602Z,7.90
2019-01-13T03:42:15.596Z,8.70
2019-01-13T03:43:15.551Z,7.60
2019-01-13T03:44:15.568Z,8.30
2019-01-13T03:45:15.530Z,8.20
2019-01-13T03:46:15.513Z,8.00
2019-01-13T03:47:15.547Z,7.80
2019-01-13T03:48:15.500Z,7.70
2019-01-13T03:49:15.490Z,7.70
2019-01-13T03:50:15.487Z,7.30
2019-01-13T03:51:15.468Z,7.50
2019-01-13T03:52:15.459Z,7.60
2019-01-13T03:53:15.500Z,7.60
2019-01-13T03:54:15.515Z,8.10
2019-01-13T03:55:15.436Z,8.00
2019-01-13T03:56:15.428Z,7.50
2019-01-13T03:57:15.411Z,7.60
2019-01-13T03:58:15.412Z,7.50
2019-01-13T03:59:15.414Z,8.10
2019-01-13T04:00:15.385Z,8.30
2019-01-13T04:01:18.672Z,7.60
2019-01-13T04:02:15.377Z,8.30
2019-01-13T04:03:15.362Z,7.90
2019-01-13T04:04:15.335Z,8.50
2019-01-13T04:05:15.329Z,8.60
2019-01-13T04:06:15.306Z,8.60
2019-01-13T04:07:15.307Z,7.80
2019-01-13T04:08:15.333Z,8.70
2019-01-13T04:09:15.317Z,8.60
2019-01-13T04:10:15.266Z,8.60
2019-01-13T04:11:15.256Z,8.10
2019-01-13T04:12:15.252Z,8.30
2019-01-13T04:13:15.234Z,9.00
2019-01-13T04:14:15.267Z,8.10
2019-01-13T04:15:15.224Z,8.20
2019-01-13T04:16:15.205Z,8.20
2019-01-13T04:17:15.201Z,8.30
2019-01-13T04:18:15.185Z,8.20
2019-01-13T04:19:15.187Z,8.50
2019-01-13T04:20:15.219Z,7.90
2019-01-13T04:21:15.163Z,8.20
2019-01-13T04:22:15.143Z,7.90
2019-01-13T04:23:15.144Z,8.00
2019-01-13T04:24:15.209Z,7.70
2019-01-13T04:25:15.128Z,7.50
2019-01-13T04:26:15.100Z,8.20
2019-01-13T04:27:15.097Z,8.00
2019-01-13T04:28:15.076Z,8.20
2019-01-13T04:29:15.110Z,8.40
2019-01-13T04:30:15.077Z,7.90
2019-01-13T04:31:15.052Z,8.00
2019-01-13T04:32:15.054Z,8.00
2019-01-13T04:33:15.042Z,7.60
2019-01-13T04:34:15.040Z,8.20
2019-01-13T04:35:15.004Z,7.50
2019-01-13T04:36:14.997Z,8.20
2019-01-13T04:37:14.985Z,7.90
2019-01-13T04:38:14.966Z,8.00
2019-01-13T04:39:15.003Z,8.00
2019-01-13T04:40:14.955Z,8.20
2019-01-13T04:41:14.938Z,7.80
2019-01-13T04:42:14.932Z,7.60
2019-01-13T04:43:14.922Z,8.10
2019-01-13T04:44:14.959Z,7.90
2019-01-13T04:45:14.926Z,7.90
2019-01-13T04:46:14.894Z,7.90
2019-01-13T04:47:14.884Z,7.40
2019-01-13T04:48:14.894Z,7.90
2019-01-13T04:49:14.879Z,7.70
2019-01-13T04:50:14.872Z,7.40
2019-01-13T04:51:14.858Z,7.90
2019-01-13T04:52:14.831Z,7.70
2019-01-13T04:53:14.828Z,7.50
2019-01-13T04:54:14.820Z,7.90
2019-01-13T04:55:14.826Z,7.80
2019-01-13T04:56:14.788Z,7.70
2019-01-13T04:57:14.772Z,8.00
2019-01-13T04:58:14.802Z,8.00
2019-01-13T04:59:14.751Z,7.90
2019-01-13T05:00:14.769Z,8.00
2019-01-13T05:01:14.740Z,8.20
2019-01-13T05:02:14.751Z,7.50
2019-01-13T05:03:14.710Z,7.80
2019-01-13T05:04:14.706Z,8.20
2019-01-13T05:05:14.710Z,8.40
2019-01-13T05:06:14.676Z,8.10
2019-01-13T05:07:14.668Z,8.20
2019-01-13T05:08:14.672Z,8.20
2019-01-13T05:09:14.677Z,7.70
2019-01-13T05:10:14.658Z,8.30
2019-01-13T05:11:14.630Z,8.20
2019-01-13T05:12:14.625Z,7.90
2019-01-13T05:13:14.655Z,8.30
2019-01-13T05:14:14.601Z,7.90
2019-01-13T05:15:14.612Z,8.10
2019-01-13T05:16:14.595Z,7.80
2019-01-13T05:17:14.608Z,7.90
2019-01-13T05:18:14.556Z,7.60
2019-01-13T05:19:14.557Z,7.70
2019-01-13T05:20:14.535Z,7.70
2019-01-13T05:21:14.541Z,7.60
2019-01-13T05:22:14.513Z,7.50
2019-01-13T05:23:14.565Z,7.40
2019-01-13T05:24:14.497Z,7.50
2019-01-13T05:25:14.486Z,7.10
2019-01-13T05:26:14.518Z,6.80
2019-01-13T05:27:14.459Z,6.80
2019-01-13T05:28:14.452Z,7.20
2019-01-13T05:29:14.467Z,7.10
2019-01-13T05:30:14.444Z,7.30
2019-01-13T05:31:14.485Z,6.90
2019-01-13T05:32:14.413Z,6.80
2019-01-13T05:33:14.397Z,7.00
2019-01-13T05:34:14.389Z,6.70
2019-01-13T05:35:14.391Z,7.10
2019-01-13T05:36:14.397Z,7.10
2019-01-13T05:37:14.378Z,6.60
2019-01-13T05:38:14.358Z,6.40
2019-01-13T05:39:14.334Z,6.70
2019-01-13T05:40:14.324Z,6.60
2019-01-13T05:41:14.321Z,6.50
2019-01-13T05:42:14.338Z,7.20
2019-01-13T05:43:14.292Z,7.00
2019-01-13T05:44:14.291Z,6.60
2019-01-13T05:45:14.277Z,6.60
2019-01-13T05:46:14.272Z,6.90
2019-01-13T05:47:14.270Z,7.30
2019-01-13T05:48:14.249Z,7.10
2019-01-13T05:49:14.237Z,7.60
2019-01-13T05:50:14.271Z,7.20
2019-01-13T05:51:22.995Z,7.50
2019-01-13T05:52:14.342Z,7.20
2019-01-13T05:53:14.313Z,7.20
2019-01-13T05:54:14.303Z,7.60
2019-01-13T05:55:14.179Z,7.10
2019-01-13T05:56:14.160Z,7.30
2019-01-13T05:57:14.209Z,7.90
2019-01-13T05:58:14.164Z,7.60
2019-01-13T05:59:14.127Z,7.50
2019-01-13T06:00:14.128Z,7.80
2019-01-13T06:01:14.116Z,8.30
2019-01-13T06:02:14.093Z,7.70
2019-01-13T06:03:14.113Z,8.00
2019-01-13T06:04:14.069Z,7.70
2019-01-13T06:05:14.062Z,7.50
2019-01-13T06:06:14.063Z,7.50
2019-01-13T06:07:14.045Z,8.00
2019-01-13T06:08:14.066Z,8.20
2019-01-13T06:09:14.033Z,7.60
2019-01-13T06:10:14.009Z,7.60
2019-01-13T06:11:14.007Z,7.70
2019-01-13T06:12:14.012Z,7.70
2019-01-13T06:13:14.005Z,7.50
2019-01-13T06:14:13.968Z,7.50
2019-01-13T06:15:13.962Z,7.40
2019-01-13T06:16:13.995Z,6.90
2019-01-13T06:17:13.942Z,6.90
2019-01-13T06:18:13.953Z,7.00
2019-01-13T06:19:13.914Z,7.30
2019-01-13T06:20:13.907Z,7.10
2019-01-13T06:21:13.910Z,7.00
2019-01-13T06:22:13.892Z,6.90
2019-01-13T06:23:13.903Z,7.00
2019-01-13T06:24:13.883Z,7.00
2019-01-13T06:25:13.860Z,7.40
2019-01-13T06:26:22.890Z,7.20
2019-01-13T06:27:13.931Z,7.10
2019-01-13T06:28:14.007Z,7.10
2019-01-13T06:29:13.838Z,6.70
2019-01-13T06:30:13.833Z,7.40
2019-01-13T06:31:13.795Z,7.30
2019-01-13T06:32:13.794Z,7.20
2019-01-13T06:33:13.763Z,6.70
2019-01-13T06:34:21.467Z,7.00
2019-01-13T06:35:13.847Z,6.90
2019-01-13T06:36:21.483Z,6.70
2019-01-13T06:37:13.818Z,7.10
2019-01-13T06:38:14.957Z,6.50
2019-01-13T06:39:22.765Z,6.30
2019-01-13T06:40:13.816Z,6.80
2019-01-13T06:41:22.402Z,6.80
2019-01-13T06:42:13.778Z,7.00
2019-01-13T06:43:13.921Z,7.10
2019-01-13T06:44:13.733Z,6.60
2019-01-13T06:45:13.643Z,6.10
2019-01-13T06:46:22.332Z,6.60
2019-01-13T06:47:13.695Z,6.40
2019-01-13T06:48:22.421Z,6.20
2019-01-13T06:49:13.657Z,6.40
2019-01-13T06:50:13.841Z,6.30
2019-01-13T06:51:22.226Z,6.60
2019-01-13T06:52:13.671Z,6.40
2019-01-13T06:53:13.780Z,6.10
2019-01-13T06:54:13.586Z,6.00
2019-01-13T06:55:13.603Z,6.00
2019-01-13T06:56:23.568Z,5.80
2019-01-13T06:57:13.644Z,5.70
2019-01-13T06:58:13.698Z,5.60
2019-01-13T06:59:13.554Z,5.90
2019-01-13T07:00:13.523Z,5.60
2019-01-13T07:01:21.209Z,5.50
2019-01-13T07:02:13.561Z,5.50
2019-01-13T07:03:13.728Z,5.60
2019-01-13T07:04:22.429Z,5.40
2019-01-13T07:05:13.539Z,5.70
2019-01-13T07:06:13.560Z,5.60
2019-01-13T07:07:13.469Z,5.50
2019-01-13T07:08:13.400Z,5.30
2019-01-13T07:09:13.391Z,5.30
2019-01-13T07:10:22.353Z,5.40
2019-01-13T07:11:13.446Z,5.50
2019-01-13T07:12:13.533Z,5.20
2019-01-13T07:13:21.048Z,5.20
2019-01-13T07:14:13.413Z,5.20
2019-01-13T07:15:13.546Z,5.10
2019-01-13T07:16:13.357Z,5.00
2019-01-13T07:17:13.311Z,4.80
2019-01-13T07:18:13.294Z,5.20
2019-01-13T07:19:13.323Z,5.10
2019-01-13T07:20:13.273Z,5.00
2019-01-13T07:21:13.294Z,4.70
2019-01-13T07:22:13.270Z,4.60
2019-01-13T07:23:13.242Z,4.90
2019-01-13T07:24:20.920Z,4.60
2019-01-13T07:25:13.320Z,5.00
2019-01-13T07:26:13.467Z,4.70
2019-01-13T07:27:20.962Z,4.90
2019-01-13T07:28:13.288Z,4.50
2019-01-13T07:29:13.433Z,4.90
2019-01-13T07:30:13.219Z,4.20
2019-01-13T07:31:13.172Z,4.50
2019-01-13T07:32:20.863Z,4.10
2019-01-13T07:33:13.284Z,4.20
2019-01-13T07:34:20.844Z,4.40
2019-01-13T07:35:13.212Z,4.50
2019-01-13T07:36:13.295Z,4.90
2019-01-13T07:37:13.181Z,4.80
2019-01-13T07:38:13.086Z,4.10
2019-01-13T07:39:20.859Z,4.40
2019-01-13T07:40:13.135Z,4.60
2019-01-13T07:42:22.949Z,4.40
2019-01-13T07:43:22.905Z,4.50
2019-01-13T07:44:23.013Z,4.60
2019-01-13T07:45:22.796Z,4.60
2019-01-13T07:46:22.779Z,4.20
2019-01-13T07:47:22.778Z,4.30
2019-01-13T07:49:54.275Z,4.50
2019-01-13T07:50:57.290Z,4.80
2019-01-13T07:51:53.581Z,4.70
2019-01-13T07:52:53.604Z,4.60
2019-01-13T07:53:53.675Z,4.80
2019-01-13T07:54:54.037Z,4.30
2019-01-13T07:55:53.610Z,4.50
2019-01-13T07:56:53.555Z,4.80
2019-01-13T07:57:53.692Z,4.70
2019-01-13T07:58:53.496Z,4.50
2019-01-13T07:59:53.660Z,5.20
2019-01-13T08:00:53.492Z,4.60
2019-01-13T08:01:53.526Z,4.30
2019-01-13T08:02:53.589Z,4.70
2019-01-13T08:03:53.444Z,4.30
2019-01-13T08:04:53.622Z,4.70
2019-01-13T08:05:53.446Z,4.40
2019-01-13T08:06:53.521Z,4.50
2019-01-13T08:07:53.672Z,4.80
2019-01-13T08:08:53.489Z,4.80
2019-01-13T08:09:53.384Z,4.80
2019-01-13T08:10:53.382Z,4.90
2019-01-13T08:11:56.304Z,4.60
2019-01-13T08:12:54.471Z,5.00
2019-01-13T08:13:53.442Z,4.70
2019-01-13T08:14:53.307Z,5.00
2019-01-13T08:15:53.477Z,4.90
2019-01-13T08:16:53.362Z,4.70
2019-01-13T08:17:53.330Z,5.00
2019-01-13T08:18:53.329Z,4.80
2019-01-13T08:19:53.357Z,4.50
2019-01-13T08:20:53.386Z,4.90
2019-01-13T08:21:53.244Z,4.40
2019-01-13T08:22:53.281Z,4.60
2019-01-13T08:23:53.244Z,4.90
2019-01-13T08:24:53.298Z,4.90
2019-01-13T08:25:53.199Z,4.90
2019-01-13T08:26:53.192Z,5.00
2019-01-13T08:27:53.202Z,4.80
2019-01-13T08:28:54.309Z,5.30
2019-01-13T08:29:54.014Z,4.80
2019-01-13T08:30:53.180Z,4.40
2019-01-13T08:31:53.281Z,5.20
2019-01-13T08:32:53.267Z,4.80
2019-01-13T08:33:54.291Z,5.20
2019-01-13T08:34:53.477Z,5.10
2019-01-13T08:35:53.080Z,5.30
2019-01-13T08:36:53.365Z,5.60
2019-01-13T08:37:53.085Z,5.40
2019-01-13T08:38:53.132Z,5.10
2019-01-13T08:39:53.292Z,5.40
2019-01-13T08:40:53.034Z,5.10
2019-01-13T08:41:53.098Z,5.40
2019-01-13T08:42:53.072Z,5.00
2019-01-13T08:43:53.040Z,5.40
2019-01-13T08:44:53.104Z,5.80
2019-01-13T08:45:53.191Z,5.90
2019-01-13T08:46:53.041Z,5.80
2019-01-13T08:47:52.997Z,6.10
2019-01-13T08:48:52.947Z,5.80
2019-01-13T08:49:53.111Z,6.40
2019-01-13T08:50:53.007Z,6.00
2019-01-13T08:51:52.933Z,6.20
2019-01-13T08:52:52.948Z,6.70
2019-01-13T08:53:52.902Z,6.50
2019-01-13T08:54:52.984Z,6.20
2019-01-13T08:55:52.975Z,6.90
2019-01-13T08:56:52.868Z,6.90
2019-01-13T08:57:52.901Z,7.30
2019-01-13T08:58:52.886Z,6.60
2019-01-13T08:59:52.889Z,6.70
2019-01-13T09:00:52.874Z,7.00
2019-01-13T09:01:52.829Z,7.50
2019-01-13T09:02:52.799Z,7.80
2019-01-13T09:03:52.935Z,7.80
2019-01-13T09:04:52.986Z,7.80
2019-01-13T09:05:52.870Z,8.10
2019-01-13T09:06:52.910Z,8.20
2019-01-13T09:07:52.826Z,8.50
2019-01-13T09:08:53.647Z,8.20
2019-01-13T09:09:52.866Z,8.70
2019-01-13T09:10:52.986Z,8.70
2019-01-13T09:11:53.010Z,8.60
2019-01-13T09:12:56.852Z,8.90
2019-01-13T09:13:52.770Z,8.80
2019-01-13T09:14:52.769Z,8.40
2019-01-13T09:15:52.784Z,8.40
2019-01-13T09:16:53.066Z,8.80
2019-01-13T09:17:52.921Z,8.60
2019-01-13T09:18:53.114Z,8.30
2019-01-13T09:19:52.677Z,8.80
2019-01-13T09:20:52.888Z,8.60
2019-01-13T09:21:52.946Z,9.00
2019-01-13T09:22:52.743Z,8.60
2019-01-13T09:23:52.804Z,8.60
2019-01-13T09:24:52.737Z,8.90
2019-01-13T09:25:52.779Z,8.60
2019-01-13T09:26:52.910Z,8.70
2019-01-13T09:27:52.638Z,8.70
2019-01-13T09:28:52.551Z,8.90
2019-01-13T09:29:52.654Z,9.10
2019-01-13T09:30:52.635Z,9.60
2019-01-13T09:31:52.667Z,9.60
2019-01-13T09:32:52.530Z,10.10
2019-01-13T09:33:52.580Z,9.90
2019-01-13T09:34:52.503Z,9.90
2019-01-13T09:35:52.482Z,10.20
2019-01-13T09:36:52.506Z,10.40
2019-01-13T09:37:52.654Z,10.30
2019-01-13T09:38:52.606Z,10.70
2019-01-13T09:39:52.531Z,10.40
2019-01-13T09:40:52.461Z,11.10
2019-01-13T09:41:52.520Z,10.70
2019-01-13T09:42:52.405Z,10.50
2019-01-13T09:43:52.407Z,10.80
2019-01-13T09:44:52.407Z,11.60
2019-01-13T09:45:52.486Z,11.90
2019-01-13T09:46:52.427Z,11.70
2019-01-13T09:47:52.452Z,11.50
2019-01-13T09:48:52.372Z,12.60
2019-01-13T09:49:52.430Z,11.70
2019-01-13T09:50:52.393Z,12.30
2019-01-13T09:51:52.368Z,12.20
2019-01-13T09:52:52.347Z,12.40
2019-01-13T09:53:52.538Z,12.60
2019-01-13T09:54:52.450Z,13.00
2019-01-13T09:55:52.302Z,13.20
2019-01-13T09:56:52.335Z,13.70
2019-01-13T09:57:52.262Z,13.40
2019-01-13T09:58:52.380Z,14.00
2019-01-13T09:59:52.339Z,13.50
2019-01-13T10:00:52.293Z,13.10
2019-01-13T10:01:52.243Z,13.60
2019-01-13T10:02:52.174Z,13.70
2019-01-13T10:03:52.246Z,13.60
2019-01-13T10:04:52.208Z,13.40
2019-01-13T10:05:52.172Z,14.20
2019-01-13T10:06:52.208Z,13.10
2019-01-13T10:07:52.251Z,14.50
2019-01-13T10:08:52.203Z,13.90
2019-01-13T10:09:52.179Z,14.00
2019-01-13T10:10:52.144Z,14.10
2019-01-13T10:11:52.191Z,14.50
2019-01-13T10:12:52.266Z,14.70
2019-01-13T10:13:52.152Z,14.60
2019-01-13T10:14:52.094Z,14.80
2019-01-13T10:15:52.189Z,14.50
2019-01-13T10:16:52.063Z,14.50
2019-01-13T10:17:52.092Z,14.40
2019-01-13T10:18:52.044Z,14.00
2019-01-13T10:19:52.080Z,14.10
2019-01-13T10:20:52.000Z,14.60
2019-01-13T10:21:51.978Z,14.50
2019-01-13T10:22:52.064Z,14.80
2019-01-13T10:23:52.118Z,14.30
2019-01-13T10:24:52.126Z,14.40
2019-01-13T10:25:52.080Z,14.70
2019-01-13T10:26:51.944Z,13.90
2019-01-13T10:27:51.921Z,13.60
2019-01-13T10:28:51.894Z,14.40
2019-01-13T10:29:51.874Z,14.30
2019-01-13T10:30:51.983Z,14.40
2019-01-13T10:31:52.047Z,14.30
2019-01-13T10:32:54.609Z,13.80
2019-01-13T10:33:51.945Z,14.40
2019-01-13T10:34:51.995Z,14.00
2019-01-13T10:35:51.919Z,14.20
2019-01-13T10:36:51.860Z,13.80
2019-01-13T10:37:51.893Z,14.10
2019-01-13T10:38:51.835Z,14.30
2019-01-13T10:39:51.823Z,14.60
2019-01-13T10:40:51.894Z,14.20
2019-01-13T10:41:51.887Z,13.70
2019-01-13T10:42:51.905Z,14.10
2019-01-13T10:43:51.818Z,14.00
2019-01-13T10:44:51.754Z,13.90
2019-01-13T10:45:51.905Z,14.40
2019-01-13T10:46:51.820Z,13.60
2019-01-13T10:47:51.736Z,13.90
2019-01-13T10:48:51.703Z,13.60
2019-01-13T10:49:51.782Z,13.20
2019-01-13T10:50:51.712Z,13.40
2019-01-13T10:51:51.705Z,13.70
2019-01-13T10:52:51.749Z,13.90
2019-01-13T10:53:51.697Z,13.70
2019-01-13T10:54:51.694Z,14.00
2019-01-13T10:55:51.664Z,13.30
2019-01-13T10:56:51.720Z,13.10
2019-01-13T10:57:51.646Z,13.20
2019-01-13T10:58:51.634Z,12.50
2019-01-13T10:59:51.628Z,13.10
2019-01-13T11:00:51.720Z,13.50
2019-01-13T11:01:51.699Z,12.70
2019-01-13T11:02:51.559Z,13.80
2019-01-13T11:03:51.633Z,13.00
2019-01-13T11:04:51.562Z,13.30
2019-01-13T11:05:51.568Z,13.20
2019-01-13T11:06:51.539Z,13.00
2019-01-13T11:07:51.546Z,14.70
2019-01-13T11:08:51.517Z,12.90
2019-01-13T11:09:51.591Z,13.00
2019-01-13T11:10:51.577Z,13.70
2019-01-13T11:11:51.507Z,12.60
2019-01-13T11:12:51.481Z,12.40
2019-01-13T11:13:51.618Z,13.20
2019-01-13T11:14:51.420Z,13.20
2019-01-13T11:15:51.558Z,12.90
2019-01-13T11:16:51.430Z,13.70
2019-01-13T11:17:51.467Z,13.00
2019-01-13T11:18:51.434Z,13.00
2019-01-13T11:19:51.408Z,13.40
2019-01-13T11:20:51.466Z,13.40
2019-01-13T11:21:51.470Z,13.90
2019-01-13T11:22:51.425Z,18.50
2019-01-13T11:23:51.345Z,18.30
2019-01-13T11:24:51.406Z,14.80
2019-01-13T11:25:51.350Z,12.80
2019-01-13T11:26:51.395Z,13.00
2019-01-13T11:27:51.330Z,12.60
2019-01-13T11:28:51.290Z,12.50
2019-01-13T11:29:51.294Z,11.90
2019-01-13T11:30:51.258Z,12.20
2019-01-13T11:31:51.225Z,12.30
2019-01-13T11:32:51.468Z,12.80
2019-01-13T11:33:51.269Z,12.50
2019-01-13T11:34:51.216Z,11.30
2019-01-13T11:35:51.262Z,11.20
2019-01-13T11:36:51.323Z,12.10
2019-01-13T11:37:51.274Z,11.40
2019-01-13T11:38:51.271Z,11.60
2019-01-13T11:39:51.139Z,11.20
2019-01-13T11:40:51.120Z,11.30
2019-01-13T11:41:51.113Z,11.10
2019-01-13T11:42:51.108Z,11.00
2019-01-13T11:43:51.140Z,10.90
2019-01-13T11:44:51.082Z,11.40
2019-01-13T11:45:51.072Z,11.30
2019-01-13T11:46:51.063Z,11.20
2019-01-13T11:47:51.049Z,11.40
2019-01-13T11:48:51.109Z,10.20
2019-01-13T11:49:51.061Z,10.50
2019-01-13T11:50:51.043Z,10.60
2019-01-13T11:51:51.047Z,10.40
2019-01-13T11:52:50.994Z,10.30
2019-01-13T11:53:51.022Z,10.40
2019-01-13T11:54:51.000Z,10.50
2019-01-13T11:55:51.001Z,9.60
2019-01-13T11:56:50.962Z,10.30
2019-01-13T11:57:50.944Z,10.30
2019-01-13T11:58:51.018Z,11.30
2019-01-13T11:59:50.924Z,10.40
2019-01-13T12:00:50.907Z,9.80
2019-01-13T12:01:50.896Z,9.20
2019-01-13T12:02:50.892Z,10.20
2019-01-13T12:03:50.892Z,12.50
2019-01-13T12:04:50.890Z,11.60
2019-01-13T12:05:50.911Z,11.00
2019-01-13T12:06:50.842Z,10.30
2019-01-13T12:07:50.860Z,10.30
2019-01-13T12:08:50.865Z,11.30
2019-01-13T12:09:50.847Z,12.30
2019-01-13T12:10:50.812Z,10.10
2019-01-13T12:11:50.794Z,10.20
2019-01-13T12:12:50.968Z,10.60
2019-01-13T12:13:50.816Z,11.30
2019-01-13T12:14:50.862Z,10.30
2019-01-13T12:15:50.811Z,8.80
2019-01-13T12:16:50.859Z,9.20
2019-01-13T12:17:50.764Z,9.00
2019-01-13T12:18:50.724Z,9.90
2019-01-13T12:19:50.800Z,8.80
2019-01-13T12:20:50.698Z,8.00
2019-01-13T12:21:50.722Z,8.40
2019-01-13T12:22:50.693Z,7.50
2019-01-13T12:23:50.735Z,7.50
2019-01-13T12:24:50.791Z,6.60
2019-01-13T12:25:52.741Z,6.80
2019-01-13T12:26:50.799Z,6.30
2019-01-13T12:27:50.832Z,6.80
2019-01-13T12:28:50.671Z,6.90
2019-01-13T12:29:50.723Z,6.70
2019-01-13T12:30:50.618Z,6.40
2019-01-13T12:31:50.576Z,6.50
2019-01-13T12:32:50.568Z,6.30
2019-01-13T12:33:50.591Z,6.50
2019-01-13T12:34:50.673Z,6.10
2019-01-13T12:35:50.562Z,6.10
2019-01-13T12:36:50.527Z,6.00
2019-01-13T12:37:50.531Z,5.90
2019-01-13T12:38:50.508Z,6.20
2019-01-13T12:39:50.521Z,6.00
2019-01-13T12:40:50.520Z,5.80
2019-01-13T12:41:50.486Z,5.70
2019-01-13T12:42:50.473Z,6.20
2019-01-13T12:43:50.453Z,5.30
2019-01-13T12:44:50.458Z,5.70
2019-01-13T12:45:50.467Z,5.40
2019-01-13T12:46:50.428Z,5.60
2019-01-13T12:47:50.412Z,5.20
2019-01-13T12:48:50.416Z,4.90
2019-01-13T12:49:50.417Z,5.10
2019-01-13T12:50:50.416Z,4.60
2019-01-13T12:51:50.370Z,4.80
2019-01-13T12:52:50.367Z,4.50
2019-01-13T12:53:50.351Z,4.70
2019-01-13T12:54:51.614Z,4.80
2019-01-13T12:55:50.344Z,4.80
2019-01-13T12:56:50.338Z,4.70
2019-01-13T12:57:50.335Z,5.10
2019-01-13T12:58:50.296Z,4.90
2019-01-13T12:59:50.283Z,4.60
2019-01-13T13:00:50.363Z,5.00
2019-01-13T13:01:50.354Z,5.00
2019-01-13T13:02:50.268Z,4.90
2019-01-13T13:03:50.243Z,4.90
2019-01-13T13:04:50.233Z,4.90
2019-01-13T13:05:50.238Z,5.10
2019-01-13T13:06:50.215Z,5.10
2019-01-13T13:07:50.250Z,5.10
2019-01-13T13:08:50.210Z,5.30
2019-01-13T13:09:50.194Z,5.10
2019-01-13T13:10:50.178Z,5.50
2019-01-13T13:11:50.202Z,5.40
2019-01-13T13:12:50.209Z,5.40
2019-01-13T13:13:50.156Z,4.90
2019-01-13T13:14:50.186Z,5.70
2019-01-13T13:15:50.146Z,5.30
2019-01-13T13:16:50.108Z,5.50